createdAt,value
2023-04-28T00:02:02.405Z,10.93
2023-04-28T00:04:30.116Z,10.90
2023-04-28T00:06:56.908Z,10.88
2023-04-28T00:09:24.294Z,10.85
2023-04-28T00:11:51.051Z,10.85
2023-04-28T00:14:17.947Z,10.79
2023-04-28T00:16:44.805Z,10.77
2023-04-28T00:19:11.644Z,10.81
2023-04-28T00:21:38.320Z,10.80
2023-04-28T00:24:05.279Z,10.82
2023-04-28T00:26:31.914Z,10.76
2023-04-28T00:28:58.559Z,10.66
2023-04-28T00:31:25.470Z,10.66
2023-04-28T00:33:52.240Z,10.67
2023-04-28T00:36:18.913Z,10.54
2023-04-28T00:38:45.782Z,10.57
2023-04-28T00:41:13.153Z,10.49
2023-04-28T00:43:48.073Z,10.46
2023-04-28T00:46:23.445Z,10.36
2023-04-28T00:48:50.802Z,10.34
2023-04-28T00:51:17.877Z,10.36
2023-04-28T00:53:45.870Z,10.19
2023-04-28T00:56:13.161Z,10.10
2023-04-28T00:58:40.249Z,10.00
2023-04-28T01:01:09.879Z,9.97
2023-04-28T01:03:41.512Z,10.02
2023-04-28T01:06:10.398Z,10.08
2023-04-28T01:08:39.004Z,10.12
2023-04-28T01:11:14.505Z,10.10
2023-04-28T01:14:01.766Z,10.05
2023-04-28T01:16:33.782Z,9.98
2023-04-28T01:19:01.288Z,10.01
2023-04-28T01:21:32.759Z,9.97
2023-04-28T01:24:06.553Z,9.94
2023-04-28T01:26:33.381Z,9.91
2023-04-28T01:29:01.758Z,9.92
2023-04-28T01:31:31.315Z,9.90
2023-04-28T01:33:58.552Z,9.88
2023-04-28T01:36:27.469Z,9.81
2023-04-28T01:38:55.261Z,9.74
2023-04-28T01:41:22.585Z,9.74
2023-04-28T01:43:49.298Z,9.67
2023-04-28T01:46:16.176Z,9.71
2023-04-28T01:48:43.042Z,9.63
2023-04-28T01:51:09.658Z,9.55
2023-04-28T01:53:38.662Z,9.49
2023-04-28T01:56:05.445Z,9.53
2023-04-28T01:58:32.155Z,9.58
2023-04-28T02:00:59.405Z,9.49
2023-04-28T02:03:26.423Z,9.47
2023-04-28T02:05:54.637Z,9.57
2023-04-28T02:08:21.878Z,9.41
2023-04-28T02:10:48.590Z,9.45
2023-04-28T02:13:15.327Z,9.28
2023-04-28T02:15:43.165Z,9.22
2023-04-28T02:18:12.890Z,9.24
2023-04-28T02:20:40.356Z,9.17
2023-04-28T02:23:08.391Z,9.12
2023-04-28T02:25:35.160Z,9.08
2023-04-28T02:28:02.089Z,9.09
2023-04-28T02:30:29.029Z,9.06
2023-04-28T02:32:56.287Z,9.13
2023-04-28T02:35:23.547Z,9.11
2023-04-28T02:37:50.670Z,9.13
2023-04-28T02:40:18.824Z,9.10
2023-04-28T02:42:45.608Z,9.08
2023-04-28T02:45:12.750Z,9.10
2023-04-28T02:47:39.849Z,9.15
2023-04-28T02:50:07.340Z,9.15
2023-04-28T02:52:34.117Z,9.23
2023-04-28T02:55:01.001Z,9.27
2023-04-28T02:57:27.632Z,9.24
2023-04-28T02:59:54.515Z,9.26
2023-04-28T03:02:23.312Z,9.20
2023-04-28T03:04:50.234Z,9.22
2023-04-28T03:07:17.287Z,9.16
2023-04-28T03:09:44.134Z,9.22
2023-04-28T03:12:10.848Z,9.17
2023-04-28T03:14:37.558Z,9.03
2023-04-28T03:17:04.348Z,8.98
2023-04-28T03:19:31.011Z,8.93
2023-04-28T03:21:57.846Z,8.89
2023-04-28T03:24:24.574Z,8.96
2023-04-28T03:26:51.408Z,9.04
2023-04-28T03:29:18.064Z,9.11
2023-04-28T03:31:44.862Z,9.16
2023-04-28T03:34:12.496Z,9.09
2023-04-28T03:36:39.335Z,9.16
2023-04-28T03:39:14.216Z,9.03
2023-04-28T03:41:42.084Z,8.75
2023-04-28T03:44:37.648Z,8.80
2023-04-28T03:47:06.554Z,8.74
2023-04-28T03:49:33.354Z,8.77
2023-04-28T03:52:00.154Z,8.77
2023-04-28T03:54:26.948Z,8.57
2023-04-28T03:56:53.785Z,8.59
2023-04-28T03:59:21.243Z,8.58
2023-04-28T04:01:49.332Z,8.53
2023-04-28T04:04:16.666Z,8.43
2023-04-28T04:06:44.210Z,8.63
2023-04-28T04:09:11.751Z,8.50
2023-04-28T04:11:38.620Z,8.37
2023-04-28T04:14:06.458Z,8.40
2023-04-28T04:16:33.325Z,8.42
2023-04-28T04:19:00.119Z,8.45
2023-04-28T04:21:35.999Z,8.41
2023-04-28T04:24:02.760Z,8.41
2023-04-28T04:26:29.827Z,8.47
2023-04-28T04:28:56.894Z,8.51
2023-04-28T04:31:23.880Z,8.52
2023-04-28T04:33:51.932Z,8.52
2023-04-28T04:36:20.549Z,8.58
2023-04-28T04:38:47.640Z,8.59
2023-04-28T04:41:20.797Z,8.57
2023-04-28T04:43:48.758Z,8.55
2023-04-28T04:46:15.775Z,8.57
2023-04-28T04:48:42.472Z,8.59
2023-04-28T04:51:09.391Z,8.57
2023-04-28T04:53:36.477Z,8.53
2023-04-28T04:56:03.598Z,8.44
2023-04-28T04:58:32.120Z,8.40
2023-04-28T05:01:22.365Z,8.39
2023-04-28T05:03:49.200Z,8.37
2023-04-28T05:06:16.235Z,8.41
2023-04-28T05:08:45.896Z,8.40
2023-04-28T05:11:12.713Z,8.43
2023-04-28T05:13:41.006Z,8.34
2023-04-28T05:16:07.793Z,8.34
2023-04-28T05:18:57.738Z,8.30
2023-04-28T05:21:24.490Z,8.30
2023-04-28T05:23:51.247Z,8.30
2023-04-28T05:26:17.995Z,8.34
2023-04-28T05:28:44.877Z,8.42
2023-04-28T05:31:11.628Z,8.40
2023-04-28T05:33:38.353Z,8.40
2023-04-28T05:36:05.635Z,8.41
2023-04-28T05:38:34.118Z,8.34
2023-04-28T05:41:02.048Z,8.38
2023-04-28T05:43:29.071Z,8.41
2023-04-28T05:45:56.003Z,8.32
2023-04-28T05:48:22.831Z,8.40
2023-04-28T05:50:49.681Z,8.45
2023-04-28T05:53:16.497Z,8.48
2023-04-28T05:55:43.344Z,8.44
2023-04-28T05:58:10.254Z,8.39
2023-04-28T06:00:37.849Z,8.34
2023-04-28T06:03:05.669Z,8.39
2023-04-28T06:05:33.303Z,8.49
2023-04-28T06:08:00.206Z,8.41
2023-04-28T06:10:27.124Z,8.43
2023-04-28T06:12:53.933Z,8.43
2023-04-28T06:15:20.750Z,8.48
2023-04-28T06:17:48.258Z,8.48
2023-04-28T06:20:16.766Z,8.50
2023-04-28T06:22:43.932Z,8.68
2023-04-28T06:25:10.765Z,8.52
2023-04-28T06:27:55.502Z,8.73
2023-04-28T06:30:23.541Z,8.63
2023-04-28T06:32:50.894Z,8.56
2023-04-28T06:35:18.037Z,8.67
2023-04-28T06:37:44.819Z,8.60
2023-04-28T06:40:11.870Z,8.73
2023-04-28T06:42:42.122Z,8.56
2023-04-28T06:45:17.796Z,8.68
2023-04-28T06:47:44.999Z,8.64
2023-04-28T06:50:12.464Z,8.58
2023-04-28T06:52:40.015Z,8.67
2023-04-28T06:55:09.473Z,8.66
2023-04-28T06:57:38.104Z,8.61
2023-04-28T07:00:05.586Z,8.63
2023-04-28T07:02:32.381Z,8.71
2023-04-28T07:04:59.337Z,8.72
2023-04-28T07:07:26.636Z,8.79
2023-04-28T07:09:53.673Z,8.76
2023-04-28T07:12:21.423Z,8.86
2023-04-28T07:14:48.233Z,8.91
2023-04-28T07:17:14.998Z,9.01
2023-04-28T07:19:41.758Z,9.12
2023-04-28T07:22:08.564Z,9.20
2023-04-28T07:24:35.676Z,9.18
2023-04-28T07:27:03.921Z,9.07
2023-04-28T07:29:34.261Z,9.01
2023-04-28T07:32:09.168Z,9.09
2023-04-28T07:34:38.066Z,9.20
2023-04-28T07:37:05.706Z,9.12
2023-04-28T07:39:35.160Z,9.07
2023-04-28T07:42:03.476Z,9.13
2023-04-28T07:44:31.607Z,9.13
2023-04-28T07:46:59.979Z,9.47
2023-04-28T07:49:28.632Z,9.48
2023-04-28T07:51:55.954Z,9.42
2023-04-28T07:54:23.013Z,9.51
2023-04-28T07:56:50.320Z,9.63
2023-04-28T07:59:16.997Z,9.71
2023-04-28T08:01:43.690Z,9.53
2023-04-28T08:04:12.175Z,9.64
2023-04-28T08:06:40.243Z,9.77
2023-04-28T08:09:07.036Z,9.68
2023-04-28T08:11:34.778Z,9.60
2023-04-28T08:14:03.404Z,9.74
2023-04-28T08:16:31.261Z,9.97
2023-04-28T08:18:58.280Z,10.27
2023-04-28T08:21:25.165Z,10.20
2023-04-28T08:23:51.871Z,10.10
2023-04-28T08:26:18.755Z,10.53
2023-04-28T08:28:45.633Z,10.40
2023-04-28T08:31:12.340Z,10.40
2023-04-28T08:33:39.228Z,10.34
2023-04-28T08:36:06.653Z,10.54
2023-04-28T08:38:33.529Z,10.52
2023-04-28T08:41:00.186Z,10.68
2023-04-28T08:43:28.805Z,10.33
2023-04-28T08:45:55.700Z,11.00
2023-04-28T08:48:23.170Z,10.80
2023-04-28T08:50:54.853Z,10.57
2023-04-28T08:53:26.057Z,10.85
2023-04-28T08:55:56.851Z,11.15
2023-04-28T08:58:24.971Z,11.61
2023-04-28T09:00:52.794Z,11.86
2023-04-28T09:03:19.959Z,11.73
2023-04-28T09:05:47.310Z,11.69
2023-04-28T09:08:14.375Z,11.25
2023-04-28T09:10:41.504Z,11.36
2023-04-28T09:13:08.212Z,11.72
2023-04-28T09:15:41.452Z,12.34
2023-04-28T09:18:08.822Z,11.49
2023-04-28T09:20:36.457Z,12.05
2023-04-28T09:23:16.146Z,12.29
2023-04-28T09:25:59.708Z,12.11
2023-04-28T09:28:26.570Z,12.80
2023-04-28T09:30:54.173Z,12.15
2023-04-28T09:33:22.089Z,12.42
2023-04-28T09:35:49.142Z,12.97
2023-04-28T09:38:16.612Z,13.04
2023-04-28T09:40:57.325Z,13.37
2023-04-28T09:43:28.501Z,13.59
2023-04-28T09:45:56.682Z,12.87
2023-04-28T09:48:33.603Z,12.85
2023-04-28T09:51:01.798Z,13.56
2023-04-28T09:53:29.567Z,14.60
2023-04-28T09:55:59.430Z,14.26
2023-04-28T09:58:27.855Z,13.81
2023-04-28T10:00:55.402Z,14.84
2023-04-28T10:03:26.079Z,13.85
2023-04-28T10:05:54.956Z,14.29
2023-04-28T10:08:22.832Z,13.42
2023-04-28T10:10:50.309Z,14.06
2023-04-28T10:13:18.176Z,14.77
2023-04-28T10:15:46.155Z,14.74
2023-04-28T10:18:15.229Z,15.98
2023-04-28T10:20:48.537Z,15.22
2023-04-28T10:23:59.920Z,15.78
2023-04-28T10:26:52.478Z,17.46
2023-04-28T10:29:24.990Z,17.36
2023-04-28T10:32:17.509Z,16.51
2023-04-28T10:34:44.748Z,16.56
2023-04-28T10:37:11.550Z,17.56
2023-04-28T10:39:38.670Z,18.20
2023-04-28T10:42:05.447Z,17.73
2023-04-28T10:44:32.136Z,17.78
2023-04-28T10:47:03.259Z,16.96
2023-04-28T10:49:54.851Z,16.40
2023-04-28T10:52:33.585Z,16.74
2023-04-28T10:55:28.933Z,18.18
2023-04-28T10:58:20.523Z,17.97
2023-04-28T11:00:48.324Z,17.80
2023-04-28T11:03:37.017Z,17.76
2023-04-28T11:06:29.082Z,17.46
2023-04-28T11:09:22.582Z,17.69
2023-04-28T11:11:58.128Z,18.92
2023-04-28T11:14:36.203Z,19.88
2023-04-28T11:17:05.557Z,20.01
2023-04-28T11:19:37.896Z,18.77
2023-04-28T11:22:11.884Z,18.37
2023-04-28T11:24:38.602Z,18.31
2023-04-28T11:27:05.409Z,17.70
2023-04-28T11:29:40.232Z,18.84
2023-04-28T11:32:08.785Z,19.17
2023-04-28T11:34:37.113Z,18.69
2023-04-28T11:37:04.088Z,19.04
2023-04-28T11:39:32.713Z,19.62
2023-04-28T11:42:02.538Z,19.28
2023-04-28T11:44:31.528Z,19.73
2023-04-28T11:47:01.567Z,19.87
2023-04-28T11:49:30.737Z,19.94
2023-04-28T11:52:00.579Z,19.40
2023-04-28T11:54:28.913Z,19.61
2023-04-28T11:56:57.734Z,20.38
2023-04-28T11:59:26.176Z,20.36
2023-04-28T12:01:55.822Z,20.72
2023-04-28T12:04:32.904Z,21.02
2023-04-28T12:07:02.232Z,20.77
2023-04-28T12:09:29.379Z,20.25
2023-04-28T12:11:58.584Z,19.59
2023-04-28T12:14:26.073Z,18.55
2023-04-28T12:16:53.332Z,19.37
2023-04-28T12:19:21.041Z,19.77
2023-04-28T12:22:01.932Z,20.06
2023-04-28T12:24:29.082Z,19.92
2023-04-28T12:27:14.864Z,19.78
2023-04-28T12:29:42.903Z,19.85
2023-04-28T12:32:11.269Z,19.39
2023-04-28T12:34:39.962Z,19.60
2023-04-28T12:37:06.982Z,19.04
2023-04-28T12:39:36.398Z,18.66
2023-04-28T12:42:04.852Z,18.72
2023-04-28T12:44:36.823Z,18.72
2023-04-28T12:47:08.192Z,18.10
2023-04-28T12:49:38.922Z,18.37
2023-04-28T12:52:05.967Z,18.08
2023-04-28T12:54:32.766Z,18.01
2023-04-28T12:56:59.517Z,18.08
2023-04-28T12:59:26.903Z,18.23
2023-04-28T13:01:53.724Z,18.23
2023-04-28T13:04:20.807Z,18.51
2023-04-28T13:06:48.182Z,18.41
2023-04-28T13:09:16.058Z,18.14
2023-04-28T13:11:43.156Z,18.18
2023-04-28T13:14:10.055Z,17.86
2023-04-28T13:16:37.166Z,18.22
2023-04-28T13:19:04.548Z,18.34
2023-04-28T13:21:32.156Z,17.69
2023-04-28T13:23:58.866Z,17.48
2023-04-28T13:26:27.004Z,17.10
2023-04-28T13:28:53.740Z,17.21
2023-04-28T13:31:20.620Z,17.29
2023-04-28T13:33:47.600Z,16.95
2023-04-28T13:36:14.456Z,16.90
2023-04-28T13:38:41.232Z,17.23
2023-04-28T13:41:08.028Z,17.68
2023-04-28T13:43:34.883Z,17.97
2023-04-28T13:46:01.972Z,18.17
2023-04-28T13:48:33.730Z,18.72
2023-04-28T13:51:00.511Z,17.98
2023-04-28T13:53:27.138Z,17.79
2023-04-28T13:55:54.104Z,18.17
2023-04-28T13:58:21.280Z,18.00
2023-04-28T14:00:48.064Z,18.19
2023-04-28T14:03:15.795Z,18.74
2023-04-28T14:05:49.546Z,18.23
2023-04-28T14:08:19.348Z,17.85
2023-04-28T14:10:48.364Z,17.47
2023-04-28T14:13:15.688Z,17.24
2023-04-28T14:15:51.238Z,17.07
2023-04-28T14:18:25.269Z,17.05
2023-04-28T14:20:52.116Z,16.75
2023-04-28T14:23:18.786Z,16.74
2023-04-28T14:25:45.515Z,16.59
2023-04-28T14:28:12.417Z,16.67
2023-04-28T14:30:39.071Z,16.83
2023-04-28T14:33:06.961Z,17.07
2023-04-28T14:35:34.798Z,17.00
2023-04-28T14:38:01.797Z,17.12
2023-04-28T14:40:28.450Z,17.09
2023-04-28T14:42:55.159Z,17.16
2023-04-28T14:45:22.196Z,16.93
2023-04-28T14:47:49.829Z,16.91
2023-04-28T14:50:17.051Z,16.86
2023-04-28T14:52:44.269Z,16.93
2023-04-28T14:55:11.060Z,17.08
2023-04-28T14:57:37.994Z,16.87
2023-04-28T15:00:07.259Z,16.86
2023-04-28T15:02:34.468Z,16.69
2023-04-28T15:05:01.626Z,16.99
2023-04-28T15:07:31.557Z,16.85
2023-04-28T15:10:01.836Z,16.61
2023-04-28T15:12:32.281Z,16.36
2023-04-28T15:14:59.114Z,16.28
2023-04-28T15:17:26.124Z,16.23
2023-04-28T15:19:52.826Z,16.34
2023-04-28T15:22:19.566Z,16.45
2023-04-28T15:24:46.552Z,16.70
2023-04-28T15:27:13.375Z,16.63
2023-04-28T15:29:40.268Z,16.63
2023-04-28T15:32:07.197Z,16.63
2023-04-28T15:34:34.344Z,16.45
2023-04-28T15:37:01.647Z,16.24
2023-04-28T15:39:28.792Z,16.39
2023-04-28T15:41:56.289Z,16.45
2023-04-28T15:44:23.320Z,16.40
2023-04-28T15:46:52.126Z,16.48
2023-04-28T15:49:18.910Z,16.56
2023-04-28T15:51:45.897Z,16.64
2023-04-28T15:54:13.024Z,16.86
2023-04-28T15:56:39.870Z,17.07
2023-04-28T15:59:06.962Z,17.59
2023-04-28T16:01:33.953Z,17.45
2023-04-28T16:04:01.758Z,17.22
2023-04-28T16:06:29.215Z,17.36
2023-04-28T16:08:57.069Z,17.15
2023-04-28T16:11:24.589Z,16.95
2023-04-28T16:13:51.563Z,16.95
2023-04-28T16:16:21.080Z,17.16
2023-04-28T16:18:48.006Z,17.35
2023-04-28T16:21:17.473Z,17.70
2023-04-28T16:23:44.771Z,17.92
2023-04-28T16:26:11.655Z,17.84
2023-04-28T16:28:38.508Z,17.88
2023-04-28T16:31:05.319Z,18.12
2023-04-28T16:33:32.433Z,18.07
2023-04-28T16:35:59.999Z,18.02
2023-04-28T16:38:26.725Z,17.98
2023-04-28T16:40:53.574Z,18.08
2023-04-28T16:43:21.203Z,17.98
2023-04-28T16:45:48.288Z,17.65
2023-04-28T16:48:20.330Z,17.60
2023-04-28T16:50:47.141Z,17.68
2023-04-28T16:53:13.808Z,17.53
2023-04-28T16:55:40.777Z,17.41
2023-04-28T16:58:07.738Z,17.54
2023-04-28T17:00:34.441Z,17.50
2023-04-28T17:03:01.412Z,17.55
2023-04-28T17:05:28.934Z,17.55
2023-04-28T17:07:57.248Z,17.64
2023-04-28T17:10:25.568Z,17.67
2023-04-28T17:12:52.668Z,17.67
2023-04-28T17:15:19.447Z,17.47
2023-04-28T17:17:49.388Z,17.48
2023-04-28T17:20:19.991Z,17.66
2023-04-28T17:22:47.837Z,17.64
2023-04-28T17:25:14.832Z,17.63
2023-04-28T17:27:41.556Z,17.30
2023-04-28T17:30:11.661Z,17.22
2023-04-28T17:32:38.761Z,17.14
2023-04-28T17:35:10.527Z,17.04
2023-04-28T17:37:37.463Z,17.09
2023-04-28T17:40:04.814Z,17.15
2023-04-28T17:42:32.085Z,17.17
2023-04-28T17:44:59.381Z,17.27
2023-04-28T17:47:26.247Z,17.29
2023-04-28T17:49:53.025Z,17.19
2023-04-28T17:52:19.859Z,17.07
2023-04-28T17:54:46.615Z,17.05
2023-04-28T17:57:14.062Z,16.95
2023-04-28T17:59:40.889Z,16.94
2023-04-28T18:02:11.440Z,16.89
2023-04-28T18:04:38.537Z,16.86
2023-04-28T18:07:07.350Z,16.73
2023-04-28T18:09:34.099Z,16.53
2023-04-28T18:12:03.245Z,16.39
2023-04-28T18:14:30.730Z,16.29
2023-04-28T18:16:58.356Z,16.24
2023-04-28T18:19:28.890Z,16.14
2023-04-28T18:21:57.145Z,15.98
2023-04-28T18:24:24.716Z,15.98
2023-04-28T18:26:51.626Z,15.93
2023-04-28T18:29:19.101Z,15.84
2023-04-28T18:31:46.449Z,15.66
2023-04-28T18:34:13.434Z,15.70
2023-04-28T18:36:40.479Z,15.68
2023-04-28T18:39:08.974Z,15.48
2023-04-28T18:41:36.671Z,15.48
2023-04-28T18:44:03.524Z,15.41
2023-04-28T18:46:30.522Z,15.11
2023-04-28T18:48:57.482Z,15.13
2023-04-28T18:51:24.380Z,15.12
2023-04-28T18:53:51.114Z,15.01
2023-04-28T18:56:17.947Z,14.91
2023-04-28T18:58:45.901Z,14.88
2023-04-28T19:01:14.312Z,14.89
2023-04-28T19:03:41.574Z,14.68
2023-04-28T19:06:09.016Z,14.74
2023-04-28T19:08:39.092Z,14.70
2023-04-28T19:11:09.633Z,14.65
2023-04-28T19:13:36.876Z,14.57
2023-04-28T19:16:04.223Z,14.59
2023-04-28T19:18:32.129Z,14.57
2023-04-28T19:21:02.918Z,14.53
2023-04-28T19:23:30.755Z,14.45
2023-04-28T19:25:58.669Z,14.38
2023-04-28T19:28:26.373Z,14.36
2023-04-28T19:30:54.332Z,14.40
2023-04-28T19:33:24.317Z,14.39
2023-04-28T19:35:55.711Z,14.23
2023-04-28T19:38:23.571Z,14.26
2023-04-28T19:40:53.715Z,14.23
2023-04-28T19:43:20.528Z,14.20
2023-04-28T19:45:47.857Z,14.10
2023-04-28T19:48:14.751Z,14.00
2023-04-28T19:50:42.370Z,14.08
2023-04-28T19:53:09.614Z,13.93
2023-04-28T19:55:37.093Z,14.02
2023-04-28T19:58:06.170Z,13.85
2023-04-28T20:00:33.506Z,13.84
2023-04-28T20:03:00.744Z,13.82
2023-04-28T20:05:27.636Z,13.71
2023-04-28T20:07:56.088Z,13.72
2023-04-28T20:10:23.972Z,13.72
2023-04-28T20:12:51.010Z,13.69
2023-04-28T20:15:18.583Z,13.64
2023-04-28T20:17:46.257Z,13.57
2023-04-28T20:20:13.595Z,13.62
2023-04-28T20:22:43.712Z,13.53
2023-04-28T20:25:11.026Z,13.53
2023-04-28T20:27:38.116Z,13.53
2023-04-28T20:30:05.411Z,13.49
2023-04-28T20:32:32.351Z,13.41
2023-04-28T20:34:59.533Z,13.41
2023-04-28T20:37:26.627Z,13.34
2023-04-28T20:39:53.691Z,13.30
2023-04-28T20:42:20.460Z,13.24
2023-04-28T20:44:47.355Z,13.29
2023-04-28T20:47:14.372Z,13.30
2023-04-28T20:49:42.474Z,13.19
2023-04-28T20:52:09.824Z,13.16
2023-04-28T20:54:36.857Z,13.12
2023-04-28T20:57:04.721Z,13.17
2023-04-28T20:59:32.772Z,12.98
2023-04-28T21:02:00.449Z,13.06
2023-04-28T21:04:28.440Z,12.86
2023-04-28T21:06:55.784Z,12.84
2023-04-28T21:09:25.506Z,12.69
2023-04-28T21:11:52.789Z,12.58
2023-04-28T21:14:19.552Z,12.54
2023-04-28T21:16:46.254Z,12.39
2023-04-28T21:19:13.039Z,12.41
2023-04-28T21:21:39.784Z,12.25
2023-04-28T21:24:08.154Z,12.33
2023-04-28T21:26:36.017Z,12.31
2023-04-28T21:29:03.081Z,12.18
2023-04-28T21:31:30.892Z,12.13
2023-04-28T21:33:57.764Z,12.13
2023-04-28T21:36:24.507Z,12.13
2023-04-28T21:38:51.386Z,12.19
2023-04-28T21:41:18.323Z,12.18
2023-04-28T21:43:45.065Z,12.15
2023-04-28T21:46:12.668Z,12.07
2023-04-28T21:48:39.397Z,12.07
2023-04-28T21:51:06.236Z,12.12
2023-04-28T21:53:33.003Z,12.14
2023-04-28T21:55:59.778Z,12.11
2023-04-28T21:58:26.487Z,12.05
2023-04-28T22:00:55.059Z,12.11
2023-04-28T22:03:22.218Z,12.23
2023-04-28T22:05:49.512Z,12.12
2023-04-28T22:08:17.144Z,12.12
2023-04-28T22:10:45.774Z,12.12
2023-04-28T22:13:16.121Z,12.13
2023-04-28T22:15:43.240Z,12.16
2023-04-28T22:18:10.134Z,12.13
2023-04-28T22:20:36.941Z,11.92
2023-04-28T22:23:03.810Z,11.84
2023-04-28T22:25:30.609Z,12.02
2023-04-28T22:27:57.481Z,12.09
2023-04-28T22:30:25.927Z,12.17
2023-04-28T22:32:53.452Z,12.19
2023-04-28T22:35:20.229Z,12.12
2023-04-28T22:37:47.034Z,12.18
2023-04-28T22:40:13.966Z,12.22
2023-04-28T22:42:41.992Z,12.20
2023-04-28T22:45:10.459Z,12.20
2023-04-28T22:47:39.800Z,12.18
2023-04-28T22:50:10.960Z,12.14
2023-04-28T22:52:37.734Z,12.20
2023-04-28T22:55:04.973Z,12.20
2023-04-28T22:57:31.755Z,12.28
2023-04-28T22:59:58.443Z,12.31
2023-04-28T23:02:25.534Z,12.28
2023-04-28T23:04:52.333Z,12.25
2023-04-28T23:07:19.190Z,12.17
2023-04-28T23:09:45.912Z,12.10
2023-04-28T23:12:12.697Z,12.04
2023-04-28T23:14:39.446Z,12.07
2023-04-28T23:17:06.314Z,12.15
2023-04-28T23:19:33.054Z,12.25
2023-04-28T23:21:59.921Z,12.37
2023-04-28T23:24:27.565Z,12.39
2023-04-28T23:26:59.565Z,12.39
2023-04-28T23:29:26.533Z,12.47
2023-04-28T23:31:55.067Z,12.43
2023-04-28T23:34:23.159Z,12.44
2023-04-28T23:36:50.496Z,12.56
2023-04-28T23:39:17.163Z,12.47
2023-04-28T23:41:43.932Z,12.48
2023-04-28T23:44:10.637Z,12.49
2023-04-28T23:46:37.382Z,12.47
2023-04-28T23:49:04.054Z,12.59
2023-04-28T23:51:32.419Z,12.52
2023-04-28T23:53:59.528Z,12.54
2023-04-28T23:56:26.961Z,12.56
2023-04-28T23:58:53.762Z,12.51
